sensor_id;sensor_type;location;lat;lon;timestamp;P1;durP1;ratioP1;P2;durP2;ratioP2
42876;SDS011;42341;40.498;72.818;2023-03-01T03:00:04;46.10;;;21.30;;
42876;SDS011;42341;40.498;72.818;2023-03-01T03:02:49;47.47;;;22.55;;
42876;SDS011;42341;40.498;72.818;2023-03-01T03:05:18;61.63;;;24.08;;
42876;SDS011;42341;40.498;72.818;2023-03-01T03:07:47;68.53;;;27.13;;
42876;SDS011;42341;40.498;72.818;2023-03-01T03:10:21;60.30;;;24.00;;
42876;SDS011;42341;40.498;72.818;2023-03-01T03:12:52;40.75;;;19.02;;
42876;SDS011;42341;40.498;72.818;2023-03-01T03:15:21;53.05;;;21.30;;
42876;SDS011;42341;40.498;72.818;2023-03-01T03:17:49;55.47;;;20.73;;
42876;SDS011;42341;40.498;72.818;2023-03-01T03:20:16;68.32;;;21.48;;
42876;SDS011;42341;40.498;72.818;2023-03-01T03:22:45;62.97;;;23.73;;
42876;SDS011;42341;40.498;72.818;2023-03-01T03:25:12;53.90;;;24.88;;
42876;SDS011;42341;40.498;72.818;2023-03-01T03:27:39;69.40;;;27.58;;
42876;SDS011;42341;40.498;72.818;2023-03-01T03:30:08;52.33;;;22.00;;
42876;SDS011;42341;40.498;72.818;2023-03-01T03:32:40;51.10;;;20.90;;
42876;SDS011;42341;40.498;72.818;2023-03-01T03:35:17;49.67;;;21.63;;
42876;SDS011;42341;40.498;72.818;2023-03-01T03:37:46;40.75;;;18.25;;
42876;SDS011;42341;40.498;72.818;2023-03-01T03:42:53;36.28;;;15.88;;
42876;SDS011;42341;40.498;72.818;2023-03-01T03:45:19;50.28;;;17.83;;
42876;SDS011;42341;40.498;72.818;2023-03-01T03:47:45;66.70;;;23.08;;
42876;SDS011;42341;40.498;72.818;2023-03-01T03:50:13;42.65;;;19.35;;
42876;SDS011;42341;40.498;72.818;2023-03-01T03:52:41;40.25;;;18.55;;
42876;SDS011;42341;40.498;72.818;2023-03-01T03:55:07;43.15;;;20.45;;
42876;SDS011;42341;40.498;72.818;2023-03-01T03:57:39;60.67;;;25.80;;
42876;SDS011;42341;40.498;72.818;2023-03-01T04:00:07;46.50;;;20.17;;
42876;SDS011;42341;40.498;72.818;2023-03-01T04:02:40;42.20;;;17.33;;
42876;SDS011;42341;40.498;72.818;2023-03-01T04:05:08;45.95;;;19.83;;
42876;SDS011;42341;40.498;72.818;2023-03-01T04:07:36;47.45;;;24.40;;
42876;SDS011;42341;40.498;72.818;2023-03-01T04:10:03;60.15;;;23.42;;
42876;SDS011;42341;40.498;72.818;2023-03-01T04:12:32;85.43;;;33.50;;
42876;SDS011;42341;40.498;72.818;2023-03-01T04:15:02;54.83;;;27.55;;
42876;SDS011;42341;40.498;72.818;2023-03-01T04:17:41;58.58;;;30.98;;
42876;SDS011;42341;40.498;72.818;2023-03-01T04:20:09;63.17;;;29.75;;
42876;SDS011;42341;40.498;72.818;2023-03-01T04:22:37;53.53;;;30.70;;
42876;SDS011;42341;40.498;72.818;2023-03-01T04:25:03;65.72;;;32.88;;
42876;SDS011;42341;40.498;72.818;2023-03-01T04:27:34;62.08;;;35.17;;
42876;SDS011;42341;40.498;72.818;2023-03-01T04:30:01;67.20;;;38.90;;
42876;SDS011;42341;40.498;72.818;2023-03-01T04:32:28;72.85;;;39.17;;
42876;SDS011;42341;40.498;72.818;2023-03-01T04:34:54;67.75;;;33.83;;
42876;SDS011;42341;40.498;72.818;2023-03-01T04:37:20;71.43;;;34.95;;
42876;SDS011;42341;40.498;72.818;2023-03-01T04:39:46;69.93;;;36.25;;
42876;SDS011;42341;40.498;72.818;2023-03-01T04:42:13;90.13;;;40.20;;
42876;SDS011;42341;40.498;72.818;2023-03-01T04:44:42;81.53;;;40.80;;
42876;SDS011;42341;40.498;72.818;2023-03-01T04:47:09;74.53;;;39.67;;
42876;SDS011;42341;40.498;72.818;2023-03-01T04:49:35;83.75;;;41.22;;
42876;SDS011;42341;40.498;72.818;2023-03-01T04:52:02;79.47;;;41.15;;
42876;SDS011;42341;40.498;72.818;2023-03-01T04:54:29;84.97;;;41.88;;
42876;SDS011;42341;40.498;72.818;2023-03-01T04:56:56;89.88;;;40.97;;
42876;SDS011;42341;40.498;72.818;2023-03-01T04:59:22;88.00;;;42.15;;
42876;SDS011;42341;40.498;72.818;2023-03-01T05:01:49;93.50;;;45.80;;
42876;SDS011;42341;40.498;72.818;2023-03-01T05:04:15;87.15;;;43.40;;
42876;SDS011;42341;40.498;72.818;2023-03-01T05:06:41;75.93;;;42.38;;
42876;SDS011;42341;40.498;72.818;2023-03-01T05:09:08;82.97;;;44.95;;
42876;SDS011;42341;40.498;72.818;2023-03-01T05:11:34;83.35;;;45.17;;
42876;SDS011;42341;40.498;72.818;2023-03-01T05:14:01;61.83;;;34.50;;
42876;SDS011;42341;40.498;72.818;2023-03-01T05:16:29;67.28;;;35.42;;
42876;SDS011;42341;40.498;72.818;2023-03-01T05:18:56;57.38;;;33.38;;
42876;SDS011;42341;40.498;72.818;2023-03-01T05:21:23;52.40;;;30.48;;
42876;SDS011;42341;40.498;72.818;2023-03-01T05:23:49;51.67;;;29.10;;
42876;SDS011;42341;40.498;72.818;2023-03-01T05:26:16;60.33;;;31.02;;
42876;SDS011;42341;40.498;72.818;2023-03-01T05:28:43;50.33;;;29.10;;
42876;SDS011;42341;40.498;72.818;2023-03-01T05:31:09;54.88;;;33.58;;
42876;SDS011;42341;40.498;72.818;2023-03-01T05:33:39;63.78;;;34.58;;
42876;SDS011;42341;40.498;72.818;2023-03-01T05:36:08;64.47;;;33.67;;
42876;SDS011;42341;40.498;72.818;2023-03-01T05:38:35;59.35;;;34.50;;
42876;SDS011;42341;40.498;72.818;2023-03-01T05:41:01;59.10;;;35.88;;
42876;SDS011;42341;40.498;72.818;2023-03-01T05:43:30;62.90;;;36.40;;
42876;SDS011;42341;40.498;72.818;2023-03-01T05:45:59;55.22;;;32.97;;
42876;SDS011;42341;40.498;72.818;2023-03-01T05:48:25;59.35;;;36.70;;
42876;SDS011;42341;40.498;72.818;2023-03-01T05:50:51;61.50;;;38.33;;
42876;SDS011;42341;40.498;72.818;2023-03-01T05:53:18;68.95;;;40.72;;
42876;SDS011;42341;40.498;72.818;2023-03-01T05:55:46;68.63;;;41.38;;
42876;SDS011;42341;40.498;72.818;2023-03-01T05:58:14;73.88;;;41.70;;
42876;SDS011;42341;40.498;72.818;2023-03-01T06:00:43;63.88;;;41.70;;
42876;SDS011;42341;40.498;72.818;2023-03-01T06:03:13;69.97;;;40.60;;
42876;SDS011;42341;40.498;72.818;2023-03-01T06:05:41;68.90;;;42.22;;
42876;SDS011;42341;40.498;72.818;2023-03-01T06:08:08;60.28;;;38.60;;
42876;SDS011;42341;40.498;72.818;2023-03-01T06:10:35;64.85;;;40.90;;
42876;SDS011;42341;40.498;72.818;2023-03-01T06:13:02;57.13;;;39.25;;
42876;SDS011;42341;40.498;72.818;2023-03-01T06:15:28;61.40;;;40.63;;
42876;SDS011;42341;40.498;72.818;2023-03-01T06:17:54;64.45;;;41.42;;
42876;SDS011;42341;40.498;72.818;2023-03-01T06:20:24;65.90;;;41.40;;
42876;SDS011;42341;40.498;72.818;2023-03-01T06:22:52;70.28;;;41.38;;
42876;SDS011;42341;40.498;72.818;2023-03-01T06:25:22;74.45;;;43.35;;
42876;SDS011;42341;40.498;72.818;2023-03-01T06:27:49;64.53;;;42.05;;
42876;SDS011;42341;40.498;72.818;2023-03-01T06:30:16;59.28;;;39.28;;
42876;SDS011;42341;40.498;72.818;2023-03-01T06:32:43;65.72;;;41.30;;
42876;SDS011;42341;40.498;72.818;2023-03-01T06:35:10;79.05;;;51.00;;
42876;SDS011;42341;40.498;72.818;2023-03-01T06:37:38;64.38;;;41.38;;
42876;SDS011;42341;40.498;72.818;2023-03-01T06:40:05;59.78;;;39.55;;
42876;SDS011;42341;40.498;72.818;2023-03-01T06:42:36;62.90;;;39.53;;
42876;SDS011;42341;40.498;72.818;2023-03-01T06:45:04;61.95;;;38.03;;
42876;SDS011;42341;40.498;72.818;2023-03-01T06:47:31;62.08;;;36.65;;
42876;SDS011;42341;40.498;72.818;2023-03-01T06:49:58;62.53;;;38.58;;
42876;SDS011;42341;40.498;72.818;2023-03-01T06:52:24;65.10;;;40.05;;
42876;SDS011;42341;40.498;72.818;2023-03-01T06:54:51;59.97;;;40.58;;
42876;SDS011;42341;40.498;72.818;2023-03-01T06:57:17;64.35;;;40.08;;
42876;SDS011;42341;40.498;72.818;2023-03-01T06:59:43;52.17;;;36.70;;
42876;SDS011;42341;40.498;72.818;2023-03-01T07:02:12;58.50;;;36.95;;
42876;SDS011;42341;40.498;72.818;2023-03-01T07:04:39;56.78;;;37.60;;
42876;SDS011;42341;40.498;72.818;2023-03-01T07:07:05;57.97;;;39.67;;
42876;SDS011;42341;40.498;72.818;2023-03-01T07:09:31;63.15;;;39.50;;
42876;SDS011;42341;40.498;72.818;2023-03-01T07:11:57;61.05;;;39.28;;
42876;SDS011;42341;40.498;72.818;2023-03-01T07:14:23;59.55;;;37.15;;
42876;SDS011;42341;40.498;72.818;2023-03-01T07:16:51;60.70;;;36.63;;
42876;SDS011;42341;40.498;72.818;2023-03-01T07:19:17;59.33;;;38.33;;
42876;SDS011;42341;40.498;72.818;2023-03-01T07:21:43;58.30;;;38.03;;
42876;SDS011;42341;40.498;72.818;2023-03-01T07:24:09;60.65;;;37.10;;
42876;SDS011;42341;40.498;72.818;2023-03-01T07:26:35;61.17;;;37.55;;
42876;SDS011;42341;40.498;72.818;2023-03-01T07:29:02;55.55;;;37.40;;
42876;SDS011;42341;40.498;72.818;2023-03-01T07:31:29;59.30;;;38.67;;
42876;SDS011;42341;40.498;72.818;2023-03-01T07:33:55;59.58;;;38.40;;
42876;SDS011;42341;40.498;72.818;2023-03-01T07:36:22;63.25;;;38.75;;
42876;SDS011;42341;40.498;72.818;2023-03-01T07:58:36;76.15;;;44.85;;
42876;SDS011;42341;40.498;72.818;2023-03-01T08:01:05;73.60;;;44.38;;
42876;SDS011;42341;40.498;72.818;2023-03-01T08:03:32;76.50;;;43.47;;
42876;SDS011;42341;40.498;72.818;2023-03-01T08:05:59;91.45;;;45.22;;
42876;SDS011;42341;40.498;72.818;2023-03-01T08:08:26;80.97;;;46.47;;
42876;SDS011;42341;40.498;72.818;2023-03-01T08:10:52;87.75;;;45.63;;
42876;SDS011;42341;40.498;72.818;2023-03-01T08:13:21;79.50;;;46.85;;
42876;SDS011;42341;40.498;72.818;2023-03-01T08:15:50;93.88;;;47.38;;
42876;SDS011;42341;40.498;72.818;2023-03-01T08:18:17;90.93;;;48.67;;
42876;SDS011;42341;40.498;72.818;2023-03-01T08:20:44;91.00;;;49.10;;
42876;SDS011;42341;40.498;72.818;2023-03-01T08:23:10;83.88;;;47.70;;
42876;SDS011;42341;40.498;72.818;2023-03-01T08:25:37;84.30;;;48.25;;
42876;SDS011;42341;40.498;72.818;2023-03-01T08:28:03;87.05;;;47.65;;
42876;SDS011;42341;40.498;72.818;2023-03-01T08:30:30;91.13;;;48.00;;
42876;SDS011;42341;40.498;72.818;2023-03-01T08:32:56;90.78;;;49.17;;
42876;SDS011;42341;40.498;72.818;2023-03-01T08:35:22;93.55;;;49.55;;
42876;SDS011;42341;40.498;72.818;2023-03-01T08:37:48;83.90;;;48.95;;
42876;SDS011;42341;40.498;72.818;2023-03-01T08:40:14;94.13;;;50.75;;
42876;SDS011;42341;40.498;72.818;2023-03-01T08:42:40;96.55;;;49.15;;
42876;SDS011;42341;40.498;72.818;2023-03-01T08:45:10;102.43;;;52.17;;
42876;SDS011;42341;40.498;72.818;2023-03-01T08:47:36;89.65;;;48.30;;
42876;SDS011;42341;40.498;72.818;2023-03-01T08:50:02;98.72;;;51.15;;
42876;SDS011;42341;40.498;72.818;2023-03-01T08:52:29;91.68;;;48.40;;
42876;SDS011;42341;40.498;72.818;2023-03-01T08:54:56;93.55;;;49.97;;
42876;SDS011;42341;40.498;72.818;2023-03-01T08:57:22;94.40;;;50.97;;
42876;SDS011;42341;40.498;72.818;2023-03-01T08:59:48;99.95;;;52.05;;
42876;SDS011;42341;40.498;72.818;2023-03-01T09:02:15;97.55;;;52.80;;
42876;SDS011;42341;40.498;72.818;2023-03-01T09:04:43;94.55;;;52.50;;
42876;SDS011;42341;40.498;72.818;2023-03-01T09:07:09;97.53;;;51.38;;
42876;SDS011;42341;40.498;72.818;2023-03-01T09:09:36;102.45;;;51.95;;
42876;SDS011;42341;40.498;72.818;2023-03-01T09:12:03;107.57;;;52.15;;
42876;SDS011;42341;40.498;72.818;2023-03-01T09:14:29;91.50;;;54.50;;
42876;SDS011;42341;40.498;72.818;2023-03-01T09:16:55;105.32;;;56.60;;
42876;SDS011;42341;40.498;72.818;2023-03-01T09:19:21;99.80;;;59.40;;
42876;SDS011;42341;40.498;72.818;2023-03-01T09:21:47;105.07;;;61.05;;
42876;SDS011;42341;40.498;72.818;2023-03-01T09:24:21;105.97;;;60.53;;
42876;SDS011;42341;40.498;72.818;2023-03-01T09:26:48;107.50;;;62.13;;
42876;SDS011;42341;40.498;72.818;2023-03-01T09:29:16;120.55;;;66.88;;
42876;SDS011;42341;40.498;72.818;2023-03-01T09:31:42;119.68;;;65.78;;
42876;SDS011;42341;40.498;72.818;2023-03-01T09:34:08;120.40;;;68.63;;
42876;SDS011;42341;40.498;72.818;2023-03-01T09:36:35;116.75;;;67.63;;
42876;SDS011;42341;40.498;72.818;2023-03-01T09:39:01;126.55;;;70.60;;
42876;SDS011;42341;40.498;72.818;2023-03-01T09:41:47;124.80;;;70.78;;
42876;SDS011;42341;40.498;72.818;2023-03-01T09:44:38;116.57;;;67.65;;
42876;SDS011;42341;40.498;72.818;2023-03-01T09:47:29;115.45;;;65.43;;
42876;SDS011;42341;40.498;72.818;2023-03-01T09:50:06;119.70;;;70.95;;
42876;SDS011;42341;40.498;72.818;2023-03-01T09:52:50;123.05;;;66.70;;
42876;SDS011;42341;40.498;72.818;2023-03-01T09:55:37;113.72;;;67.20;;
42876;SDS011;42341;40.498;72.818;2023-03-01T10:00:44;132.13;;;72.80;;
42876;SDS011;42341;40.498;72.818;2023-03-01T10:06:00;113.80;;;67.55;;
42876;SDS011;42341;40.498;72.818;2023-03-01T10:08:46;125.30;;;68.47;;
42876;SDS011;42341;40.498;72.818;2023-03-01T10:11:38;118.53;;;67.03;;
42876;SDS011;42341;40.498;72.818;2023-03-01T10:19:41;133.23;;;69.20;;
42876;SDS011;42341;40.498;72.818;2023-03-01T10:22:22;116.60;;;66.22;;
42876;SDS011;42341;40.498;72.818;2023-03-01T10:28:01;119.63;;;68.57;;
42876;SDS011;42341;40.498;72.818;2023-03-01T10:30:35;118.40;;;66.88;;
42876;SDS011;42341;40.498;72.818;2023-03-01T10:36:00;124.07;;;68.15;;
42876;SDS011;42341;40.498;72.818;2023-03-01T10:38:27;129.98;;;71.07;;
42876;SDS011;42341;40.498;72.818;2023-03-01T10:40:57;118.30;;;64.60;;
42876;SDS011;42341;40.498;72.818;2023-03-01T10:46:32;122.65;;;68.60;;
42876;SDS011;42341;40.498;72.818;2023-03-01T10:49:21;134.80;;;67.05;;
42876;SDS011;42341;40.498;72.818;2023-03-01T10:51:49;125.85;;;66.13;;
42876;SDS011;42341;40.498;72.818;2023-03-01T10:56:56;128.05;;;66.45;;
42876;SDS011;42341;40.498;72.818;2023-03-01T10:59:26;114.32;;;65.93;;
42876;SDS011;42341;40.498;72.818;2023-03-01T11:04:34;127.00;;;67.82;;
42876;SDS011;42341;40.498;72.818;2023-03-01T11:07:01;121.30;;;71.05;;
42876;SDS011;42341;40.498;72.818;2023-03-01T11:09:31;114.80;;;67.82;;
42876;SDS011;42341;40.498;72.818;2023-03-01T11:12:05;114.47;;;66.72;;
42876;SDS011;42341;40.498;72.818;2023-03-01T11:14:45;123.95;;;70.78;;
42876;SDS011;42341;40.498;72.818;2023-03-01T11:17:23;132.82;;;71.60;;
42876;SDS011;42341;40.498;72.818;2023-03-01T11:22:54;136.07;;;73.18;;
42876;SDS011;42341;40.498;72.818;2023-03-01T11:25:24;131.88;;;74.05;;
42876;SDS011;42341;40.498;72.818;2023-03-01T11:27:53;150.23;;;80.07;;
42876;SDS011;42341;40.498;72.818;2023-03-01T11:30:33;139.85;;;79.82;;
42876;SDS011;42341;40.498;72.818;2023-03-01T11:36:11;127.55;;;72.53;;
42876;SDS011;42341;40.498;72.818;2023-03-01T11:38:47;130.20;;;76.35;;
42876;SDS011;42341;40.498;72.818;2023-03-01T11:41:17;145.82;;;82.47;;
42876;SDS011;42341;40.498;72.818;2023-03-01T11:44:09;132.00;;;79.65;;
42876;SDS011;42341;40.498;72.818;2023-03-01T12:10:28;146.68;;;85.15;;
42876;SDS011;42341;40.498;72.818;2023-03-01T12:13:03;146.60;;;87.70;;
42876;SDS011;42341;40.498;72.818;2023-03-01T12:21:51;168.68;;;92.25;;
42876;SDS011;42341;40.498;72.818;2023-03-01T12:30:16;165.70;;;93.38;;
42876;SDS011;42341;40.498;72.818;2023-03-01T12:33:26;167.25;;;90.65;;
42876;SDS011;42341;40.498;72.818;2023-03-01T12:41:58;165.50;;;95.53;;
42876;SDS011;42341;40.498;72.818;2023-03-01T12:47:31;190.38;;;98.88;;
42876;SDS011;42341;40.498;72.818;2023-03-01T12:50:03;213.48;;;110.22;;
42876;SDS011;42341;40.498;72.818;2023-03-01T12:52:57;213.95;;;112.10;;
42876;SDS011;42341;40.498;72.818;2023-03-01T12:58:17;233.55;;;121.18;;
42876;SDS011;42341;40.498;72.818;2023-03-01T13:07:17;227.52;;;119.13;;
42876;SDS011;42341;40.498;72.818;2023-03-01T13:09:59;255.88;;;132.40;;
42876;SDS011;42341;40.498;72.818;2023-03-01T13:17:51;240.13;;;137.80;;
42876;SDS011;42341;40.498;72.818;2023-03-01T13:20:26;247.32;;;138.82;;
42876;SDS011;42341;40.498;72.818;2023-03-01T13:23:06;252.43;;;140.20;;
42876;SDS011;42341;40.498;72.818;2023-03-01T13:28:51;243.55;;;136.45;;
42876;SDS011;42341;40.498;72.818;2023-03-01T13:33:47;243.75;;;134.15;;
42876;SDS011;42341;40.498;72.818;2023-03-01T13:46:47;210.63;;;118.03;;
42876;SDS011;42341;40.498;72.818;2023-03-01T13:49:17;227.52;;;124.53;;
42876;SDS011;42341;40.498;72.818;2023-03-01T13:51:47;217.88;;;121.72;;
42876;SDS011;42341;40.498;72.818;2023-03-01T13:54:15;228.25;;;128.15;;
42876;SDS011;42341;40.498;72.818;2023-03-01T13:56:48;213.18;;;120.82;;
42876;SDS011;42341;40.498;72.818;2023-03-01T13:59:18;208.18;;;115.28;;
42876;SDS011;42341;40.498;72.818;2023-03-01T14:01:51;204.93;;;112.80;;
42876;SDS011;42341;40.498;72.818;2023-03-01T14:04:32;190.05;;;106.07;;
42876;SDS011;42341;40.498;72.818;2023-03-01T14:09:59;244.45;;;135.07;;
42876;SDS011;42341;40.498;72.818;2023-03-01T14:18:04;230.52;;;129.95;;
42876;SDS011;42341;40.498;72.818;2023-03-01T14:20:44;227.77;;;128.98;;
42876;SDS011;42341;40.498;72.818;2023-03-01T14:23:18;202.70;;;116.53;;
42876;SDS011;42341;40.498;72.818;2023-03-01T14:25:48;219.35;;;122.38;;
42876;SDS011;42341;40.498;72.818;2023-03-01T14:28:24;209.55;;;117.13;;
42876;SDS011;42341;40.498;72.818;2023-03-01T14:30:54;191.73;;;107.30;;
42876;SDS011;42341;40.498;72.818;2023-03-01T14:35:53;216.65;;;120.03;;
42876;SDS011;42341;40.498;72.818;2023-03-01T14:41:09;214.38;;;117.30;;
42876;SDS011;42341;40.498;72.818;2023-03-01T14:43:50;272.75;;;152.18;;
42876;SDS011;42341;40.498;72.818;2023-03-01T14:46:24;290.38;;;151.52;;
42876;SDS011;42341;40.498;72.818;2023-03-01T14:52:27;239.50;;;130.43;;
42876;SDS011;42341;40.498;72.818;2023-03-01T14:54:44;254.05;;;129.90;;
42876;SDS011;42341;40.498;72.818;2023-03-01T14:57:23;238.68;;;128.77;;
42876;SDS011;42341;40.498;72.818;2023-03-01T14:59:54;231.20;;;123.90;;
42876;SDS011;42341;40.498;72.818;2023-03-01T15:02:29;237.40;;;120.80;;
42876;SDS011;42341;40.498;72.818;2023-03-01T15:04:58;211.07;;;114.20;;
42876;SDS011;42341;40.498;72.818;2023-03-01T15:07:34;210.23;;;111.95;;
42876;SDS011;42341;40.498;72.818;2023-03-01T15:10:05;190.73;;;107.55;;
42876;SDS011;42341;40.498;72.818;2023-03-01T15:12:40;191.70;;;103.15;;
42876;SDS011;42341;40.498;72.818;2023-03-01T15:15:19;189.60;;;103.40;;
42876;SDS011;42341;40.498;72.818;2023-03-01T15:17:52;191.82;;;105.72;;
42876;SDS011;42341;40.498;72.818;2023-03-01T15:20:20;193.13;;;105.32;;
42876;SDS011;42341;40.498;72.818;2023-03-01T15:22:51;221.35;;;116.45;;
42876;SDS011;42341;40.498;72.818;2023-03-01T15:25:18;208.70;;;115.00;;
42876;SDS011;42341;40.498;72.818;2023-03-01T15:27:47;201.45;;;107.93;;
42876;SDS011;42341;40.498;72.818;2023-03-01T15:30:33;199.20;;;108.15;;
42876;SDS011;42341;40.498;72.818;2023-03-01T15:35:54;222.25;;;118.60;;
42876;SDS011;42341;40.498;72.818;2023-03-01T15:40:55;199.73;;;106.30;;
42876;SDS011;42341;40.498;72.818;2023-03-01T15:52:01;222.05;;;123.07;;
42876;SDS011;42341;40.498;72.818;2023-03-01T15:54:28;213.32;;;119.00;;
42876;SDS011;42341;40.498;72.818;2023-03-01T15:56:54;221.85;;;121.30;;
42876;SDS011;42341;40.498;72.818;2023-03-01T15:59:20;219.70;;;122.57;;
42876;SDS011;42341;40.498;72.818;2023-03-01T16:01:47;225.05;;;118.90;;
42876;SDS011;42341;40.498;72.818;2023-03-01T16:04:14;225.13;;;116.00;;
42876;SDS011;42341;40.498;72.818;2023-03-01T16:06:47;215.63;;;119.75;;
42876;SDS011;42341;40.498;72.818;2023-03-01T16:09:21;214.43;;;114.07;;
42876;SDS011;42341;40.498;72.818;2023-03-01T16:11:48;203.55;;;116.38;;
42876;SDS011;42341;40.498;72.818;2023-03-01T16:14:14;199.70;;;108.93;;
42876;SDS011;42341;40.498;72.818;2023-03-01T16:16:41;207.45;;;111.95;;
42876;SDS011;42341;40.498;72.818;2023-03-01T16:19:08;193.93;;;107.90;;
42876;SDS011;42341;40.498;72.818;2023-03-01T16:21:35;198.43;;;105.82;;
42876;SDS011;42341;40.498;72.818;2023-03-01T16:24:01;202.55;;;105.85;;
42876;SDS011;42341;40.498;72.818;2023-03-01T16:26:28;204.68;;;113.80;;
42876;SDS011;42341;40.498;72.818;2023-03-01T16:28:55;205.05;;;110.85;;
42876;SDS011;42341;40.498;72.818;2023-03-01T16:31:21;191.30;;;106.28;;
42876;SDS011;42341;40.498;72.818;2023-03-01T16:33:49;206.25;;;110.47;;
42876;SDS011;42341;40.498;72.818;2023-03-01T16:36:17;206.18;;;109.07;;
42876;SDS011;42341;40.498;72.818;2023-03-01T16:38:44;190.25;;;104.80;;
42876;SDS011;42341;40.498;72.818;2023-03-01T16:41:14;209.52;;;111.63;;
42876;SDS011;42341;40.498;72.818;2023-03-01T16:43:41;199.88;;;106.20;;
42876;SDS011;42341;40.498;72.818;2023-03-01T16:46:11;192.10;;;105.80;;
42876;SDS011;42341;40.498;72.818;2023-03-01T16:48:45;202.88;;;110.18;;
42876;SDS011;42341;40.498;72.818;2023-03-01T16:51:12;204.27;;;109.88;;
42876;SDS011;42341;40.498;72.818;2023-03-01T16:53:38;190.25;;;102.88;;
42876;SDS011;42341;40.498;72.818;2023-03-01T16:56:06;196.50;;;109.03;;
42876;SDS011;42341;40.498;72.818;2023-03-01T16:58:35;203.88;;;106.13;;
42876;SDS011;42341;40.498;72.818;2023-03-01T17:01:12;189.93;;;101.05;;
42876;SDS011;42341;40.498;72.818;2023-03-01T17:03:44;196.30;;;99.50;;
42876;SDS011;42341;40.498;72.818;2023-03-01T17:06:15;181.98;;;97.07;;
42876;SDS011;42341;40.498;72.818;2023-03-01T17:08:43;190.00;;;100.60;;
42876;SDS011;42341;40.498;72.818;2023-03-01T17:11:10;183.30;;;94.88;;
42876;SDS011;42341;40.498;72.818;2023-03-01T17:13:39;182.50;;;96.03;;
42876;SDS011;42341;40.498;72.818;2023-03-01T17:16:05;175.88;;;91.22;;
42876;SDS011;42341;40.498;72.818;2023-03-01T17:18:33;184.43;;;95.53;;
42876;SDS011;42341;40.498;72.818;2023-03-01T17:21:00;193.23;;;100.03;;
42876;SDS011;42341;40.498;72.818;2023-03-01T17:23:26;186.18;;;101.68;;
42876;SDS011;42341;40.498;72.818;2023-03-01T17:25:53;189.30;;;92.90;;
42876;SDS011;42341;40.498;72.818;2023-03-01T17:28:21;179.98;;;95.07;;
42876;SDS011;42341;40.498;72.818;2023-03-01T17:30:47;183.45;;;91.68;;
42876;SDS011;42341;40.498;72.818;2023-03-01T17:33:13;174.82;;;95.53;;
42876;SDS011;42341;40.498;72.818;2023-03-01T17:35:40;171.35;;;96.18;;
42876;SDS011;42341;40.498;72.818;2023-03-01T17:38:06;182.52;;;94.68;;
42876;SDS011;42341;40.498;72.818;2023-03-01T17:40:32;184.23;;;95.70;;
42876;SDS011;42341;40.498;72.818;2023-03-01T17:43:00;186.27;;;92.78;;
42876;SDS011;42341;40.498;72.818;2023-03-01T17:45:27;167.30;;;86.15;;
42876;SDS011;42341;40.498;72.818;2023-03-01T17:47:53;164.75;;;86.32;;
42876;SDS011;42341;40.498;72.818;2023-03-01T17:50:19;174.13;;;85.95;;
42876;SDS011;42341;40.498;72.818;2023-03-01T17:52:44;174.52;;;91.97;;
42876;SDS011;42341;40.498;72.818;2023-03-01T17:55:11;181.70;;;88.97;;
42876;SDS011;42341;40.498;72.818;2023-03-01T17:57:37;165.25;;;85.50;;
42876;SDS011;42341;40.498;72.818;2023-03-01T18:00:05;170.02;;;87.15;;
42876;SDS011;42341;40.498;72.818;2023-03-01T18:02:33;172.60;;;86.55;;
42876;SDS011;42341;40.498;72.818;2023-03-01T18:04:59;164.93;;;86.60;;
